SBOSBO CTA / LICC
Speedbird OnlineSpeedbird Online CTA / LICC

Catania-Fontanarossa Airport
13:46 15.8°C

Location Catania, Italy
Latitude: 37.466801
Longitude: 15.0664
Web Airport Website | Wikipedia
Altitude 12 Meter / 39 Feet
Distance 1,952 KM / 1,213 Miles
from London.
Time Zone UTC +1 hours (Europe/Rome)
Codes IATA: CTA
ICAO: LICC
Currency £1 equals EUR 1.14
Runways
RunwayLength (m)Surface
082435Asphalt
262435Asphalt
Radio
TypeDescriptionFrequency
APPAPP119.25
DIRDIRECTOR120.8
GNDGND129.725
TWRTWR118.7
Live ATC
METAR LICC 311220Z 29019KT 9999 SCT050 16/04 Q1017
TAF TAF LICC 311100Z 3112/0112 26014KT 9999 FEW050 TEMPO 3112/3115 10007KT BECMG 0100/0102 VRB05KT
Weather As Of 31 Jan 2023 13:46
Description Scattered clouds
Wind 35 km/h from West (290°)
Cloud Cover 40%
Precipitation Rain: none, Snow: none
Sunrise 07:04
Sunset 17:21
Lounges SAC Lounge, main terminal



Support Speedbird Online

© 2017-2023 Speedbird Online